Summerset, South Dakota
Current Conditions -  °F | °C
As of 6:58 AM on Thursday 29 Jan 2015 (Local Time) from KRCA Reporting Station
Clear Clear  
Wind Chill: 12°   Ceiling: Unl
Heat Index: 21°   Visibility: 10mi
Dew Point: 18°   Wind: 7mph
Humidity: 88%   Direction: 270°W
Pressure: 30.43"   Gusts: NA
Location:  44.2544°N, 103.292°W
Report Text: KRCA 291358Z AUTO 27006KT 10SM CLR M06/M08 A3043 RMK AO2 SLP347 T10611078 $
Loading
Personal Weather Stations






























Interactive Weather Map New forecast layout! Learn more

10-Day Weather Forecast

Advertisements
Track Severe Weather on mobile